createdAt,value
2023-05-09T00:01:24.851Z,96784.59
2023-05-09T00:03:52.504Z,96775.16
2023-05-09T00:06:19.954Z,96780.75
2023-05-09T00:08:46.745Z,96792.19
2023-05-09T00:11:13.716Z,96796.28
2023-05-09T00:13:41.991Z,96795.97
2023-05-09T00:16:09.498Z,96790.09
2023-05-09T00:18:37.613Z,96784.50
2023-05-09T00:21:04.568Z,96781.91
2023-05-09T00:23:31.236Z,96775.91
2023-05-09T00:25:59.322Z,96781.50
2023-05-09T00:28:26.047Z,96774.06
2023-05-09T00:30:52.739Z,96773.72
2023-05-09T00:33:20.519Z,96756.94
2023-05-09T00:35:47.521Z,96750.28
2023-05-09T00:38:14.202Z,96750.69
2023-05-09T00:40:40.922Z,96747.38
2023-05-09T00:43:07.687Z,96750.69
2023-05-09T00:45:34.697Z,96742.03
2023-05-09T00:48:01.584Z,96738.78
2023-05-09T00:50:28.472Z,96720.13
2023-05-09T00:52:55.762Z,96705.94
2023-05-09T00:55:23.739Z,96710.28
2023-05-09T00:57:50.465Z,96704.72
2023-05-09T01:00:17.960Z,96702.09
2023-05-09T01:02:48.345Z,96695.84
2023-05-09T01:05:15.793Z,96686.25
2023-05-09T01:07:47.955Z,96684.72
2023-05-09T01:10:27.088Z,96673.19
2023-05-09T01:13:03.424Z,96664.47
2023-05-09T01:15:58.652Z,96660.03
2023-05-09T01:18:43.527Z,96660.63
2023-05-09T01:21:22.030Z,96656.91
2023-05-09T01:24:06.406Z,96644.66
2023-05-09T01:26:59.399Z,96636.50
2023-05-09T01:29:48.130Z,96638.41
2023-05-09T01:32:22.500Z,96625.13
2023-05-09T01:34:52.907Z,96617.63
2023-05-09T01:37:24.844Z,96624.97
2023-05-09T01:39:53.934Z,96626.09
2023-05-09T01:42:21.540Z,96620.63
2023-05-09T01:44:49.533Z,96616.16
2023-05-09T01:47:18.321Z,96610.97
2023-05-09T01:49:47.807Z,96622.16
2023-05-09T01:52:18.707Z,96623.34
2023-05-09T01:54:46.576Z,96623.44
2023-05-09T01:57:14.716Z,96617.88
2023-05-09T01:59:44.189Z,96619.34
2023-05-09T02:02:12.354Z,96623.13
2023-05-09T02:04:41.734Z,96628.06
2023-05-09T02:07:09.590Z,96626.94
2023-05-09T02:09:36.383Z,96623.25
2023-05-09T02:12:04.796Z,96619.13
2023-05-09T02:14:31.881Z,96619.81
2023-05-09T02:17:06.413Z,96620.13
2023-05-09T02:19:35.570Z,96614.81
2023-05-09T02:22:04.978Z,96618.88
2023-05-09T02:24:34.483Z,96605.81
2023-05-09T02:27:02.891Z,96599.13
2023-05-09T02:29:40.814Z,96592.06
2023-05-09T02:32:15.455Z,96596.94
2023-05-09T02:34:42.519Z,96587.25
2023-05-09T02:37:11.048Z,96580.94
2023-05-09T02:39:37.794Z,96579.81
2023-05-09T02:42:10.329Z,96579.41
2023-05-09T02:44:38.957Z,96579.41
2023-05-09T02:47:07.363Z,96581.28
2023-05-09T02:49:34.603Z,96574.19
2023-05-09T02:52:03.248Z,96580.84
2023-05-09T02:54:30.103Z,96576.81
2023-05-09T02:56:56.922Z,96570.81
2023-05-09T02:59:23.657Z,96574.19
2023-05-09T03:01:50.921Z,96570.88
2023-05-09T03:04:18.280Z,96563.38
2023-05-09T03:06:45.233Z,96566.06
2023-05-09T03:09:13.086Z,96563.78
2023-05-09T03:11:39.816Z,96562.28
2023-05-09T03:14:08.538Z,96563.44
2023-05-09T03:16:35.383Z,96563.03
2023-05-09T03:19:03.977Z,96560.03
2023-05-09T03:21:32.235Z,96560.78
2023-05-09T03:23:59.311Z,96553.28
2023-05-09T03:26:26.729Z,96557.44
2023-05-09T03:28:54.725Z,96553.69
2023-05-09T03:31:21.568Z,96539.50
2023-05-09T03:33:48.599Z,96541.81
2023-05-09T03:36:16.067Z,96536.53
2023-05-09T03:38:43.693Z,96538.00
2023-05-09T03:41:10.716Z,96537.25
2023-05-09T03:43:38.006Z,96535.75
2023-05-09T03:46:04.719Z,96541.66
2023-05-09T03:48:32.120Z,96537.91
2023-05-09T03:50:58.993Z,96545.72
2023-05-09T03:53:28.371Z,96546.84
2023-05-09T03:55:55.297Z,96547.19
2023-05-09T03:58:22.841Z,96555.78
2023-05-09T04:00:49.572Z,96564.03
2023-05-09T04:03:21.295Z,96559.63
2023-05-09T04:05:50.159Z,96559.25
2023-05-09T04:08:40.092Z,96563.44
2023-05-09T04:11:07.441Z,96556.38
2023-05-09T04:13:36.247Z,96560.50
2023-05-09T04:16:09.219Z,96556.41
2023-05-09T04:18:36.673Z,96557.13
2023-05-09T04:21:03.409Z,96554.13
2023-05-09T04:23:30.260Z,96546.97
2023-05-09T04:25:58.930Z,96544.38
2023-05-09T04:28:26.304Z,96546.19
2023-05-09T04:30:53.406Z,96540.63
2023-05-09T04:33:21.452Z,96547.34
2023-05-09T04:35:49.392Z,96548.88
2023-05-09T04:38:16.874Z,96529.19
2023-05-09T04:40:43.765Z,96523.97
2023-05-09T04:43:10.891Z,96522.81
2023-05-09T04:45:37.597Z,96527.28
2023-05-09T04:48:04.533Z,96523.50
2023-05-09T04:50:31.454Z,96521.97
2023-05-09T04:52:58.139Z,96512.00
2023-05-09T04:55:24.902Z,96512.84
2023-05-09T04:57:51.698Z,96504.28
2023-05-09T05:00:19.555Z,96510.25
2023-05-09T05:02:48.027Z,96517.00
2023-05-09T05:05:14.735Z,96508.00
2023-05-09T05:07:43.099Z,96493.81
2023-05-09T05:10:12.301Z,96501.31
2023-05-09T05:12:41.315Z,96495.00
2023-05-09T05:15:11.415Z,96498.75
2023-05-09T05:17:39.254Z,96501.84
2023-05-09T05:20:10.748Z,96502.94
2023-05-09T05:22:42.195Z,96504.81
2023-05-09T05:25:09.525Z,96501.47
2023-05-09T05:27:37.792Z,96495.22
2023-05-09T05:30:05.563Z,96494.94
2023-05-09T05:32:32.458Z,96499.44
2023-05-09T05:34:59.311Z,96490.53
2023-05-09T05:37:26.219Z,96500.84
2023-05-09T05:39:53.195Z,96510.88
2023-05-09T05:42:20.383Z,96514.25
2023-05-09T05:44:47.302Z,96517.28
2023-05-09T05:47:14.628Z,96504.31
2023-05-09T05:49:42.119Z,96513.78
2023-05-09T05:52:09.735Z,96515.19
2023-05-09T05:54:37.094Z,96520.13
2023-05-09T05:57:03.847Z,96519.75
2023-05-09T05:59:30.873Z,96518.28
2023-05-09T06:01:57.839Z,96521.69
2023-05-09T06:04:25.105Z,96516.16
2023-05-09T06:06:51.890Z,96519.22
2023-05-09T06:09:18.812Z,96531.06
2023-05-09T06:11:45.479Z,96527.41
2023-05-09T06:14:12.211Z,96527.13
2023-05-09T06:16:39.330Z,96527.13
2023-05-09T06:19:06.060Z,96526.75
2023-05-09T06:21:34.401Z,96534.19
2023-05-09T06:24:09.741Z,96533.63
2023-05-09T06:26:39.277Z,96533.19
2023-05-09T06:29:08.933Z,96535.50
2023-05-09T06:31:39.375Z,96532.22
2023-05-09T06:34:06.465Z,96546.19
2023-05-09T06:36:33.625Z,96548.53
2023-05-09T06:39:00.879Z,96546.16
2023-05-09T06:41:27.691Z,96547.53
2023-05-09T06:43:54.323Z,96555.69
2023-05-09T06:46:21.319Z,96552.47
2023-05-09T06:48:48.012Z,96561.88
2023-05-09T06:51:14.755Z,96564.94
2023-05-09T06:53:41.495Z,96574.41
2023-05-09T06:56:08.214Z,96572.47
2023-05-09T06:58:35.138Z,96597.84
2023-05-09T07:01:01.976Z,96601.56
2023-05-09T07:03:28.671Z,96647.75
2023-05-09T07:05:57.399Z,96655.41
2023-05-09T07:08:24.039Z,96655.44
2023-05-09T07:10:51.040Z,96681.28
2023-05-09T07:13:18.010Z,96695.59
2023-05-09T07:15:44.906Z,96689.34
2023-05-09T07:18:11.793Z,96682.50
2023-05-09T07:20:38.586Z,96672.88
2023-05-09T07:23:06.222Z,96662.19
2023-05-09T07:25:33.168Z,96674.13
2023-05-09T07:27:59.937Z,96681.16
2023-05-09T07:30:26.779Z,96681.16
2023-05-09T07:32:53.573Z,96691.72
2023-05-09T07:35:20.611Z,96682.75
2023-05-09T07:37:47.337Z,96675.22
2023-05-09T07:40:14.838Z,96669.72
2023-05-09T07:42:45.261Z,96670.44
2023-05-09T07:45:12.155Z,96656.47
2023-05-09T07:47:38.897Z,96683.88
2023-05-09T07:50:06.492Z,96709.59
2023-05-09T07:52:33.333Z,96713.34
2023-05-09T07:55:00.163Z,96686.75
2023-05-09T07:57:26.978Z,96710.69
2023-05-09T07:59:53.600Z,96690.63
2023-05-09T08:02:20.321Z,96707.44
2023-05-09T08:04:49.224Z,96713.06
2023-05-09T08:07:16.440Z,96719.53
2023-05-09T08:09:43.239Z,96720.16
2023-05-09T08:12:13.024Z,96705.94
2023-05-09T08:14:39.743Z,96702.94
2023-05-09T08:17:06.415Z,96674.19
2023-05-09T08:19:33.144Z,96673.06
2023-05-09T08:22:00.756Z,96707.84
2023-05-09T08:24:27.424Z,96716.09
2023-05-09T08:26:54.081Z,96696.00
2023-05-09T08:29:20.877Z,96698.25
2023-05-09T08:31:47.683Z,96704.38
2023-05-09T08:34:14.438Z,96721.22
2023-05-09T08:36:41.344Z,96708.06
2023-05-09T08:39:09.730Z,96725.03
2023-05-09T08:41:37.115Z,96727.78
2023-05-09T08:44:04.842Z,96732.66
2023-05-09T08:46:36.627Z,96771.97
2023-05-09T08:49:07.490Z,96775.31
2023-05-09T08:51:35.996Z,96750.59
2023-05-09T08:54:03.410Z,96722.06
2023-05-09T08:56:34.892Z,96744.19
2023-05-09T08:59:01.606Z,96746.38
2023-05-09T09:01:29.328Z,96725.72
2023-05-09T09:03:56.554Z,96746.38
2023-05-09T09:06:25.885Z,96744.16
2023-05-09T09:08:55.243Z,96757.66
2023-05-09T09:11:22.921Z,96756.97
2023-05-09T09:13:52.819Z,96756.66
2023-05-09T09:16:21.406Z,96768.66
2023-05-09T09:18:48.586Z,96790.50
2023-05-09T09:21:19.606Z,96774.25
2023-05-09T09:23:47.729Z,96767.59
2023-05-09T09:26:15.094Z,96805.88
2023-05-09T09:28:42.654Z,96806.63
2023-05-09T09:31:21.402Z,96799.13
2023-05-09T09:33:48.857Z,96799.78
2023-05-09T09:36:15.724Z,96755.03
2023-05-09T09:38:46.497Z,96716.00
2023-05-09T09:41:13.498Z,96680.78
2023-05-09T09:43:45.941Z,96700.97
2023-05-09T09:46:16.559Z,96663.88
2023-05-09T09:48:52.928Z,96708.88
2023-05-09T09:51:20.299Z,96705.53
2023-05-09T09:53:47.435Z,96692.09
2023-05-09T09:56:14.234Z,96704.50
2023-05-09T09:58:40.996Z,96763.75
2023-05-09T10:01:09.602Z,96705.63
2023-05-09T10:03:38.120Z,96682.31
2023-05-09T10:06:05.699Z,96730.78
2023-05-09T10:08:32.420Z,96754.47
2023-05-09T10:11:00.069Z,96771.44
2023-05-09T10:13:27.933Z,96815.84
2023-05-09T10:15:58.192Z,96820.78
2023-05-09T10:18:31.281Z,96846.69
2023-05-09T10:21:04.015Z,96879.09
2023-05-09T10:23:32.092Z,96902.78
2023-05-09T10:26:07.640Z,96850.81
2023-05-09T10:28:37.862Z,96818.50
2023-05-09T10:31:26.159Z,96854.94
2023-05-09T10:33:54.544Z,96856.66
2023-05-09T10:36:26.151Z,96831.03
2023-05-09T10:38:56.485Z,96814.59
2023-05-09T10:41:24.289Z,96832.81
2023-05-09T10:43:51.421Z,96792.41
2023-05-09T10:46:18.514Z,96803.72
2023-05-09T10:48:45.909Z,96790.16
2023-05-09T10:51:13.324Z,96806.38
2023-05-09T10:53:50.577Z,96833.06
2023-05-09T10:56:30.472Z,96835.16
2023-05-09T10:58:57.973Z,96833.72
2023-05-09T11:01:39.634Z,96803.75
2023-05-09T11:04:17.326Z,96819.22
2023-05-09T11:06:52.345Z,96805.31
2023-05-09T11:09:38.247Z,96850.09
2023-05-09T11:12:05.076Z,96834.50
2023-05-09T11:14:39.763Z,96791.78
2023-05-09T11:17:11.340Z,96856.09
2023-05-09T11:19:39.438Z,96864.00
2023-05-09T11:22:16.536Z,96836.53
2023-05-09T11:24:47.694Z,96822.94
2023-05-09T11:27:21.869Z,96896.41
2023-05-09T11:29:54.179Z,96909.47
2023-05-09T11:32:23.363Z,96839.53
2023-05-09T11:34:50.176Z,96868.19
2023-05-09T11:37:20.538Z,96848.97
2023-05-09T11:40:01.159Z,96922.00
2023-05-09T11:42:28.796Z,96895.72
2023-05-09T11:44:57.167Z,96969.84
2023-05-09T11:47:24.758Z,96950.53
2023-05-09T11:49:52.010Z,96940.81
2023-05-09T11:52:19.710Z,96994.22
2023-05-09T11:54:46.447Z,97026.72
2023-05-09T11:57:17.513Z,97019.94
2023-05-09T11:59:45.678Z,97016.59
2023-05-09T12:02:13.700Z,97010.53
2023-05-09T12:04:40.786Z,96923.00
2023-05-09T12:07:07.718Z,97026.72
2023-05-09T12:09:38.879Z,96906.50
2023-05-09T12:12:12.882Z,96972.13
2023-05-09T12:14:40.428Z,96975.06
2023-05-09T12:17:08.271Z,96978.88
2023-05-09T12:19:35.698Z,96945.25
2023-05-09T12:22:06.943Z,96960.75
2023-05-09T12:24:36.853Z,96968.34
2023-05-09T12:27:05.019Z,96951.00
2023-05-09T12:29:31.865Z,96938.22
2023-05-09T12:32:00.718Z,96934.44
2023-05-09T12:34:27.644Z,96942.31
2023-05-09T12:36:54.342Z,96943.47
2023-05-09T12:39:23.183Z,96917.09
2023-05-09T12:42:01.007Z,96925.75
2023-05-09T12:44:30.175Z,96920.78
2023-05-09T12:47:04.842Z,96957.97
2023-05-09T12:49:32.733Z,96925.56
2023-05-09T12:52:03.016Z,96939.78
2023-05-09T12:54:31.336Z,96983.78
2023-05-09T12:56:58.767Z,96917.31
2023-05-09T12:59:27.209Z,96960.31
2023-05-09T13:01:54.762Z,96917.16
2023-05-09T13:04:22.197Z,96958.53
2023-05-09T13:06:54.092Z,96955.91
2023-05-09T13:09:21.063Z,96894.16
2023-05-09T13:11:48.015Z,96901.31
2023-05-09T13:14:15.171Z,96899.78
2023-05-09T13:16:42.201Z,96886.59
2023-05-09T13:19:08.991Z,96897.88
2023-05-09T13:21:36.324Z,96867.03
2023-05-09T13:24:04.400Z,96864.78
2023-05-09T13:26:31.535Z,96799.69
2023-05-09T13:28:58.409Z,96780.03
2023-05-09T13:31:25.390Z,96846.72
2023-05-09T13:33:52.482Z,96830.91
2023-05-09T13:36:19.386Z,96842.94
2023-05-09T13:38:46.260Z,96827.53
2023-05-09T13:41:13.924Z,96748.44
2023-05-09T13:43:43.302Z,96716.50
2023-05-09T13:46:09.984Z,96717.63
2023-05-09T13:48:36.739Z,96698.84
2023-05-09T13:51:03.885Z,96665.75
2023-05-09T13:53:30.708Z,96669.53
2023-05-09T13:55:57.433Z,96669.53
2023-05-09T13:58:24.301Z,96665.78
2023-05-09T14:00:51.696Z,96646.97
2023-05-09T14:03:18.439Z,96664.25
2023-05-09T14:05:45.333Z,96687.97
2023-05-09T14:08:12.400Z,96672.56
2023-05-09T14:10:39.064Z,96650.38
2023-05-09T14:13:08.577Z,96646.97
2023-05-09T14:15:35.636Z,96621.00
2023-05-09T14:18:02.437Z,96635.66
2023-05-09T14:20:29.284Z,96611.22
2023-05-09T14:22:59.830Z,96630.81
2023-05-09T14:25:26.955Z,96626.69
2023-05-09T14:27:54.228Z,96606.38
2023-05-09T14:30:20.935Z,96595.13
2023-05-09T14:32:48.084Z,96562.34
2023-05-09T14:35:14.929Z,96580.81
2023-05-09T14:37:41.804Z,96554.88
2023-05-09T14:40:09.832Z,96516.19
2023-05-09T14:42:37.190Z,96528.56
2023-05-09T14:45:05.249Z,96506.78
2023-05-09T14:47:32.119Z,96512.06
2023-05-09T14:49:58.913Z,96486.16
2023-05-09T14:52:25.616Z,96435.09
2023-05-09T14:54:52.438Z,96369.75
2023-05-09T14:57:19.488Z,96322.09
2023-05-09T14:59:46.171Z,96283.41
2023-05-09T15:02:12.860Z,96260.53
2023-05-09T15:04:41.480Z,96221.13
2023-05-09T15:07:08.582Z,96182.47
2023-05-09T15:09:35.270Z,96149.00
2023-05-09T15:12:01.969Z,96143.41
2023-05-09T15:14:28.844Z,96123.16
2023-05-09T15:16:59.236Z,96105.19
2023-05-09T15:19:26.539Z,96083.03
2023-05-09T15:21:53.303Z,96076.25
2023-05-09T15:24:19.985Z,96076.75
2023-05-09T15:26:46.687Z,96069.63
2023-05-09T15:29:13.387Z,96054.25
2023-05-09T15:31:40.093Z,96051.63
2023-05-09T15:34:06.852Z,96033.63
2023-05-09T15:36:36.130Z,96024.91
2023-05-09T15:39:02.775Z,96026.31
2023-05-09T15:41:29.947Z,96037.66
2023-05-09T15:43:56.670Z,96033.91
2023-05-09T15:46:23.748Z,96026.38
2023-05-09T15:48:50.818Z,96030.97
2023-05-09T15:51:17.528Z,96030.53
2023-05-09T15:53:44.381Z,96026.34
2023-05-09T15:56:11.320Z,96025.66
2023-05-09T15:58:39.042Z,96012.91
2023-05-09T16:01:08.102Z,95988.47
2023-05-09T16:03:35.060Z,95993.34
2023-05-09T16:06:02.034Z,95992.94
2023-05-09T16:08:28.753Z,95977.47
2023-05-09T16:10:55.431Z,95988.47
2023-05-09T16:13:22.590Z,96000.94
2023-05-09T16:15:50.370Z,95998.31
2023-05-09T16:18:17.108Z,96008.97
2023-05-09T16:20:44.258Z,95995.47
2023-05-09T16:23:11.674Z,95995.09
2023-05-09T16:25:38.689Z,95987.38
2023-05-09T16:28:07.313Z,95992.59
2023-05-09T16:30:34.397Z,96003.56
2023-05-09T16:33:01.175Z,95997.88
2023-05-09T16:35:28.106Z,95997.13
2023-05-09T16:37:54.787Z,95991.13
2023-05-09T16:40:21.754Z,95989.66
2023-05-09T16:42:48.492Z,95986.63
2023-05-09T16:45:15.193Z,95988.50
2023-05-09T16:47:41.845Z,95974.69
2023-05-09T16:50:10.554Z,95954.44
2023-05-09T16:52:37.397Z,95938.31
2023-05-09T16:55:04.438Z,95934.25
2023-05-09T16:57:31.145Z,95924.63
2023-05-09T16:59:58.612Z,95905.53
2023-05-09T17:02:25.522Z,95891.66
2023-05-09T17:04:52.768Z,95884.47
2023-05-09T17:07:19.544Z,95901.31
2023-05-09T17:09:46.459Z,95895.63
2023-05-09T17:12:17.647Z,95901.53
2023-05-09T17:14:45.687Z,95919.53
2023-05-09T17:17:13.269Z,95926.31
2023-05-09T17:19:40.067Z,95932.75
2023-05-09T17:22:08.134Z,95937.63
2023-05-09T17:24:34.930Z,95924.84
2023-05-09T17:27:02.144Z,95921.50
2023-05-09T17:29:30.763Z,95924.53
2023-05-09T17:31:58.508Z,95910.69
2023-05-09T17:34:25.305Z,95906.19
2023-05-09T17:36:52.481Z,95909.16
2023-05-09T17:39:19.891Z,95911.13
2023-05-09T17:41:46.759Z,95937.94
2023-05-09T17:44:13.721Z,95956.00
2023-05-09T17:46:41.353Z,95968.34
2023-05-09T17:49:10.335Z,95984.84
2023-05-09T17:51:37.245Z,95988.63
2023-05-09T17:54:04.229Z,96002.84
2023-05-09T17:56:31.484Z,96028.31
2023-05-09T17:58:59.675Z,96039.97
2023-05-09T18:01:26.777Z,96047.81
2023-05-09T18:03:54.179Z,96044.44
2023-05-09T18:06:21.030Z,96060.16
2023-05-09T18:08:47.773Z,96058.28
2023-05-09T18:11:14.860Z,96042.94
2023-05-09T18:13:41.565Z,96043.69
2023-05-09T18:16:08.399Z,96048.56
2023-05-09T18:18:36.636Z,96047.06
2023-05-09T18:21:05.114Z,96042.59
2023-05-09T18:23:31.876Z,96036.59
2023-05-09T18:25:58.656Z,96018.63
2023-05-09T18:28:25.796Z,96007.38
2023-05-09T18:30:54.926Z,95997.28
2023-05-09T18:33:27.705Z,95988.28
2023-05-09T18:35:55.170Z,95987.94
2023-05-09T18:38:22.904Z,95987.16
2023-05-09T18:40:51.829Z,95984.56
2023-05-09T18:43:20.985Z,95995.41
2023-05-09T18:45:48.219Z,96000.63
2023-05-09T18:48:16.160Z,95996.50
2023-05-09T18:50:42.882Z,95986.03
2023-05-09T18:53:09.590Z,95988.66
2023-05-09T18:55:36.312Z,95980.41
2023-05-09T18:58:02.990Z,95972.16
2023-05-09T19:00:29.693Z,95968.81
2023-05-09T19:02:56.475Z,95971.44
2023-05-09T19:05:23.257Z,95977.03
2023-05-09T19:07:50.008Z,95966.56
2023-05-09T19:10:18.582Z,95960.94
2023-05-09T19:12:46.301Z,95949.34
2023-05-09T19:15:13.120Z,95948.94
2023-05-09T19:17:39.846Z,95924.25
2023-05-09T19:20:08.309Z,95902.59
2023-05-09T19:22:36.868Z,95903.38
2023-05-09T19:25:04.571Z,95900.69
2023-05-09T19:27:31.610Z,95891.75
2023-05-09T19:29:59.996Z,95887.63
2023-05-09T19:32:28.101Z,95876.41
2023-05-09T19:34:55.424Z,95865.91
2023-05-09T19:37:23.068Z,95858.44
2023-05-09T19:39:50.325Z,95830.75
2023-05-09T19:42:17.853Z,95802.75
2023-05-09T19:44:45.114Z,95783.69
2023-05-09T19:47:12.112Z,95763.16
2023-05-09T19:49:40.592Z,95741.84
2023-05-09T19:52:07.559Z,95731.75
2023-05-09T19:54:34.358Z,95712.72
2023-05-09T19:57:02.229Z,95709.34
2023-05-09T19:59:29.311Z,95702.63
2023-05-09T20:01:56.181Z,95693.66
2023-05-09T20:04:24.264Z,95690.28
2023-05-09T20:06:51.556Z,95679.44
2023-05-09T20:09:21.151Z,95682.06
2023-05-09T20:11:48.614Z,95683.56
2023-05-09T20:14:15.815Z,95686.19
2023-05-09T20:16:44.145Z,95677.22
2023-05-09T20:19:14.601Z,95680.59
2023-05-09T20:21:41.506Z,95684.31
2023-05-09T20:24:09.049Z,95668.59
2023-05-09T20:26:36.044Z,95675.72
2023-05-09T20:29:02.825Z,95680.94
2023-05-09T20:31:29.743Z,95667.88
2023-05-09T20:33:58.000Z,95666.75
2023-05-09T20:36:25.433Z,95655.19
2023-05-09T20:38:52.327Z,95654.81
2023-05-09T20:41:19.147Z,95652.19
2023-05-09T20:43:45.910Z,95655.53
2023-05-09T20:46:13.288Z,95657.41
2023-05-09T20:48:40.075Z,95662.66
2023-05-09T20:51:06.773Z,95668.25
2023-05-09T20:53:35.112Z,95675.00
2023-05-09T20:56:02.224Z,95672.34
2023-05-09T20:58:32.819Z,95676.09
2023-05-09T21:00:59.613Z,95679.81
2023-05-09T21:03:26.657Z,95683.56
2023-05-09T21:05:54.085Z,95684.31
2023-05-09T21:08:20.886Z,95678.34
2023-05-09T21:10:47.635Z,95680.97
2023-05-09T21:13:14.397Z,95685.81
2023-05-09T21:15:41.280Z,95682.44
2023-05-09T21:18:08.158Z,95680.97
2023-05-09T21:20:34.972Z,95682.81
2023-05-09T21:23:01.663Z,95687.69
2023-05-09T21:25:28.308Z,95689.19
2023-05-09T21:27:55.016Z,95697.41
2023-05-09T21:30:21.906Z,95701.16
2023-05-09T21:32:50.953Z,95717.56
2023-05-09T21:35:17.675Z,95717.56
2023-05-09T21:37:45.828Z,95739.22
2023-05-09T21:40:13.043Z,95753.03
2023-05-09T21:42:41.334Z,95770.63
2023-05-09T21:45:08.499Z,95787.38
2023-05-09T21:47:35.667Z,95787.41
2023-05-09T21:50:04.284Z,95790.34
2023-05-09T21:52:30.957Z,95785.91
2023-05-09T21:54:58.531Z,95789.59
2023-05-09T21:57:25.356Z,95788.88
2023-05-09T21:59:52.071Z,95801.56
2023-05-09T22:02:18.789Z,95809.72
2023-05-09T22:04:46.043Z,95809.78
2023-05-09T22:07:12.966Z,95813.84
2023-05-09T22:09:39.657Z,95810.84
2023-05-09T22:12:06.461Z,95821.22
2023-05-09T22:14:37.165Z,95818.66
2023-05-09T22:17:08.937Z,95824.28
2023-05-09T22:19:35.882Z,95828.38
2023-05-09T22:22:02.572Z,95832.09
2023-05-09T22:24:29.224Z,95836.50
2023-05-09T22:26:55.942Z,95830.53
2023-05-09T22:29:22.672Z,95817.78
2023-05-09T22:31:49.389Z,95818.28
2023-05-09T22:34:16.756Z,95828.31
2023-05-09T22:36:43.437Z,95814.91
2023-05-09T22:39:11.246Z,95826.88
2023-05-09T22:41:37.952Z,95825.72
2023-05-09T22:44:04.708Z,95819.03
2023-05-09T22:46:31.749Z,95830.25
2023-05-09T22:48:58.474Z,95842.91
2023-05-09T22:51:25.163Z,95836.22
2023-05-09T22:53:51.948Z,95842.53
2023-05-09T22:56:18.658Z,95841.38
2023-05-09T22:58:45.371Z,95840.97
2023-05-09T23:01:12.055Z,95846.19
2023-05-09T23:03:38.813Z,95841.31
2023-05-09T23:06:06.655Z,95845.78
2023-05-09T23:08:34.229Z,95841.72
2023-05-09T23:11:01.487Z,95850.69
2023-05-09T23:13:28.452Z,95858.44
2023-05-09T23:15:55.247Z,95854.59
2023-05-09T23:18:23.945Z,95856.13
2023-05-09T23:20:50.817Z,95850.28
2023-05-09T23:23:17.826Z,95864.06
2023-05-09T23:25:44.710Z,95871.09
2023-05-09T23:28:11.544Z,95877.38
2023-05-09T23:30:38.246Z,95878.00
2023-05-09T23:33:04.925Z,95873.47
2023-05-09T23:35:32.244Z,95862.78
2023-05-09T23:37:59.027Z,95878.38
2023-05-09T23:40:25.788Z,95882.81
2023-05-09T23:42:52.478Z,95878.69
2023-05-09T23:45:19.264Z,95879.78
2023-05-09T23:47:46.010Z,95876.03
2023-05-09T23:50:13.762Z,95875.34
2023-05-09T23:52:41.987Z,95866.34
2023-05-09T23:55:09.503Z,95873.03
2023-05-09T23:57:36.253Z,95865.22
